sensor_id;sensor_type;location;lat;lon;timestamp;temperature;humidity
56771;DHT22;42641;59.794;17.616;2023-06-01T00:00:50;13.10;80.90
56771;DHT22;42641;59.794;17.616;2023-06-01T00:03:17;13.10;81.00
56771;DHT22;42641;59.794;17.616;2023-06-01T00:05:43;13.10;81.00
56771;DHT22;42641;59.794;17.616;2023-06-01T00:08:09;13.10;80.70
56771;DHT22;42641;59.794;17.616;2023-06-01T00:10:37;13.10;80.80
56771;DHT22;42641;59.794;17.616;2023-06-01T00:13:03;13.10;80.40
56771;DHT22;42641;59.794;17.616;2023-06-01T00:15:29;13.00;80.20
56771;DHT22;42641;59.794;17.616;2023-06-01T00:17:56;13.10;80.50
56771;DHT22;42641;59.794;17.616;2023-06-01T00:20:23;13.10;81.10
56771;DHT22;42641;59.794;17.616;2023-06-01T00:22:50;13.00;80.90
56771;DHT22;42641;59.794;17.616;2023-06-01T00:25:17;13.00;80.60
56771;DHT22;42641;59.794;17.616;2023-06-01T00:27:43;13.00;80.80
56771;DHT22;42641;59.794;17.616;2023-06-01T00:30:11;13.00;80.60
56771;DHT22;42641;59.794;17.616;2023-06-01T00:32:38;13.00;81.00
56771;DHT22;42641;59.794;17.616;2023-06-01T00:35:04;13.00;80.60
56771;DHT22;42641;59.794;17.616;2023-06-01T00:37:31;13.00;81.30
56771;DHT22;42641;59.794;17.616;2023-06-01T00:39:57;13.00;81.80
56771;DHT22;42641;59.794;17.616;2023-06-01T00:42:24;12.90;81.00
56771;DHT22;42641;59.794;17.616;2023-06-01T00:44:50;12.90;81.00
56771;DHT22;42641;59.794;17.616;2023-06-01T00:47:17;12.90;81.30
56771;DHT22;42641;59.794;17.616;2023-06-01T00:49:44;12.80;81.70
56771;DHT22;42641;59.794;17.616;2023-06-01T00:52:12;12.70;81.70
56771;DHT22;42641;59.794;17.616;2023-06-01T00:54:38;12.70;81.70
56771;DHT22;42641;59.794;17.616;2023-06-01T00:57:05;12.60;80.60
56771;DHT22;42641;59.794;17.616;2023-06-01T00:59:34;12.50;80.70
56771;DHT22;42641;59.794;17.616;2023-06-01T01:02:01;12.50;80.20
56771;DHT22;42641;59.794;17.616;2023-06-01T01:04:30;12.40;80.30
56771;DHT22;42641;59.794;17.616;2023-06-01T01:07:02;12.40;80.10
56771;DHT22;42641;59.794;17.616;2023-06-01T01:09:59;12.40;80.60
56771;DHT22;42641;59.794;17.616;2023-06-01T01:12:47;12.30;81.00
56771;DHT22;42641;59.794;17.616;2023-06-01T01:15:23;12.20;81.30
56771;DHT22;42641;59.794;17.616;2023-06-01T01:17:59;12.10;81.40
56771;DHT22;42641;59.794;17.616;2023-06-01T01:20:33;12.00;81.90
56771;DHT22;42641;59.794;17.616;2023-06-01T01:23:14;11.90;81.90
56771;DHT22;42641;59.794;17.616;2023-06-01T01:28:47;11.80;82.40
56771;DHT22;42641;59.794;17.616;2023-06-01T01:31:22;11.70;82.70
56771;DHT22;42641;59.794;17.616;2023-06-01T01:33:54;11.70;83.40
56771;DHT22;42641;59.794;17.616;2023-06-01T01:36:23;11.70;83.70
56771;DHT22;42641;59.794;17.616;2023-06-01T01:38:50;11.60;84.50
56771;DHT22;42641;59.794;17.616;2023-06-01T01:41:17;11.60;84.70
56771;DHT22;42641;59.794;17.616;2023-06-01T01:43:44;11.50;85.10
56771;DHT22;42641;59.794;17.616;2023-06-01T01:46:23;11.50;85.20
56771;DHT22;42641;59.794;17.616;2023-06-01T01:54:36;11.10;86.70
56771;DHT22;42641;59.794;17.616;2023-06-01T01:57:04;11.00;87.10
56771;DHT22;42641;59.794;17.616;2023-06-01T01:59:31;10.90;87.30
56771;DHT22;42641;59.794;17.616;2023-06-01T02:01:59;10.80;88.20
56771;DHT22;42641;59.794;17.616;2023-06-01T02:04:25;10.70;87.60
56771;DHT22;42641;59.794;17.616;2023-06-01T02:06:52;10.60;88.40
56771;DHT22;42641;59.794;17.616;2023-06-01T02:09:20;10.50;88.70
56771;DHT22;42641;59.794;17.616;2023-06-01T02:11:46;10.50;88.50
56771;DHT22;42641;59.794;17.616;2023-06-01T02:14:13;10.40;89.10
56771;DHT22;42641;59.794;17.616;2023-06-01T02:16:39;10.30;89.50
56771;DHT22;42641;59.794;17.616;2023-06-01T02:19:06;10.30;90.00
56771;DHT22;42641;59.794;17.616;2023-06-01T02:21:32;10.20;90.10
56771;DHT22;42641;59.794;17.616;2023-06-01T02:24:01;10.10;90.20
56771;DHT22;42641;59.794;17.616;2023-06-01T02:26:31;10.10;90.70
56771;DHT22;42641;59.794;17.616;2023-06-01T02:28:58;10.00;90.70
56771;DHT22;42641;59.794;17.616;2023-06-01T02:31:24;10.00;90.70
56771;DHT22;42641;59.794;17.616;2023-06-01T02:33:52;10.00;90.80
56771;DHT22;42641;59.794;17.616;2023-06-01T02:36:19;9.90;91.00
56771;DHT22;42641;59.794;17.616;2023-06-01T02:38:45;9.90;90.90
56771;DHT22;42641;59.794;17.616;2023-06-01T02:41:12;9.90;90.90
56771;DHT22;42641;59.794;17.616;2023-06-01T02:43:39;9.80;90.90
56771;DHT22;42641;59.794;17.616;2023-06-01T02:46:05;9.70;91.10
56771;DHT22;42641;59.794;17.616;2023-06-01T02:48:35;9.80;91.10
56771;DHT22;42641;59.794;17.616;2023-06-01T02:51:01;9.80;91.10
56771;DHT22;42641;59.794;17.616;2023-06-01T02:53:28;9.70;91.10
56771;DHT22;42641;59.794;17.616;2023-06-01T02:55:55;9.70;91.20
56771;DHT22;42641;59.794;17.616;2023-06-01T02:58:47;9.70;91.10
56771;DHT22;42641;59.794;17.616;2023-06-01T03:01:27;9.60;91.40
56771;DHT22;42641;59.794;17.616;2023-06-01T03:03:54;9.60;91.40
56771;DHT22;42641;59.794;17.616;2023-06-01T03:06:21;9.60;91.30
56771;DHT22;42641;59.794;17.616;2023-06-01T03:09:07;9.50;91.40
56771;DHT22;42641;59.794;17.616;2023-06-01T03:12:08;9.50;91.30
56771;DHT22;42641;59.794;17.616;2023-06-01T03:14:36;9.50;91.30
56771;DHT22;42641;59.794;17.616;2023-06-01T03:17:03;9.50;91.40
56771;DHT22;42641;59.794;17.616;2023-06-01T03:19:29;9.50;91.10
56771;DHT22;42641;59.794;17.616;2023-06-01T03:21:58;9.50;91.00
56771;DHT22;42641;59.794;17.616;2023-06-01T03:24:24;9.50;90.50
56771;DHT22;42641;59.794;17.616;2023-06-01T03:26:54;9.40;90.70
56771;DHT22;42641;59.794;17.616;2023-06-01T03:29:22;9.50;90.50
56771;DHT22;42641;59.794;17.616;2023-06-01T03:31:49;9.50;90.40
56771;DHT22;42641;59.794;17.616;2023-06-01T03:34:19;9.50;90.40
56771;DHT22;42641;59.794;17.616;2023-06-01T03:36:46;9.60;90.20
56771;DHT22;42641;59.794;17.616;2023-06-01T03:39:15;9.60;90.50
56771;DHT22;42641;59.794;17.616;2023-06-01T03:41:43;9.60;90.10
56771;DHT22;42641;59.794;17.616;2023-06-01T03:44:11;9.60;90.50
56771;DHT22;42641;59.794;17.616;2023-06-01T03:46:39;9.60;88.90
56771;DHT22;42641;59.794;17.616;2023-06-01T03:49:05;9.60;89.00
56771;DHT22;42641;59.794;17.616;2023-06-01T03:51:32;9.70;88.40
56771;DHT22;42641;59.794;17.616;2023-06-01T03:53:59;9.60;87.70
56771;DHT22;42641;59.794;17.616;2023-06-01T03:56:27;9.80;88.10
56771;DHT22;42641;59.794;17.616;2023-06-01T03:58:57;9.80;87.00
56771;DHT22;42641;59.794;17.616;2023-06-01T04:01:25;9.80;85.70
56771;DHT22;42641;59.794;17.616;2023-06-01T04:03:56;9.80;85.90
56771;DHT22;42641;59.794;17.616;2023-06-01T04:06:23;9.80;85.80
56771;DHT22;42641;59.794;17.616;2023-06-01T04:08:51;9.80;85.90
56771;DHT22;42641;59.794;17.616;2023-06-01T04:11:22;9.90;86.50
56771;DHT22;42641;59.794;17.616;2023-06-01T04:13:50;10.00;86.40
56771;DHT22;42641;59.794;17.616;2023-06-01T04:16:18;10.00;86.30
56771;DHT22;42641;59.794;17.616;2023-06-01T04:18:45;10.10;85.70
56771;DHT22;42641;59.794;17.616;2023-06-01T04:21:17;10.20;85.60
56771;DHT22;42641;59.794;17.616;2023-06-01T04:23:45;10.20;85.80
56771;DHT22;42641;59.794;17.616;2023-06-01T04:26:14;10.20;85.10
56771;DHT22;42641;59.794;17.616;2023-06-01T04:28:43;10.20;86.30
56771;DHT22;42641;59.794;17.616;2023-06-01T04:31:13;10.10;85.00
56771;DHT22;42641;59.794;17.616;2023-06-01T04:33:47;10.20;85.10
56771;DHT22;42641;59.794;17.616;2023-06-01T04:36:22;10.20;84.90
56771;DHT22;42641;59.794;17.616;2023-06-01T04:38:52;10.20;84.70
56771;DHT22;42641;59.794;17.616;2023-06-01T04:41:22;10.40;85.40
56771;DHT22;42641;59.794;17.616;2023-06-01T04:43:49;10.40;84.50
56771;DHT22;42641;59.794;17.616;2023-06-01T04:46:22;10.50;84.20
56771;DHT22;42641;59.794;17.616;2023-06-01T04:48:52;10.40;84.00
56771;DHT22;42641;59.794;17.616;2023-06-01T04:51:19;10.40;84.10
56771;DHT22;42641;59.794;17.616;2023-06-01T04:53:50;10.50;84.20
56771;DHT22;42641;59.794;17.616;2023-06-01T04:56:22;10.60;84.50
56771;DHT22;42641;59.794;17.616;2023-06-01T04:58:57;10.50;84.00
56771;DHT22;42641;59.794;17.616;2023-06-01T05:01:26;10.70;83.80
56771;DHT22;42641;59.794;17.616;2023-06-01T05:03:56;10.60;83.20
56771;DHT22;42641;59.794;17.616;2023-06-01T05:06:23;10.60;82.80
56771;DHT22;42641;59.794;17.616;2023-06-01T05:08:51;10.60;82.70
56771;DHT22;42641;59.794;17.616;2023-06-01T05:11:18;10.50;82.90
56771;DHT22;42641;59.794;17.616;2023-06-01T05:13:44;10.60;82.90
56771;DHT22;42641;59.794;17.616;2023-06-01T05:16:11;10.70;81.70
56771;DHT22;42641;59.794;17.616;2023-06-01T05:18:38;10.70;81.20
56771;DHT22;42641;59.794;17.616;2023-06-01T05:21:06;10.70;80.70
56771;DHT22;42641;59.794;17.616;2023-06-01T05:23:33;10.70;80.60
56771;DHT22;42641;59.794;17.616;2023-06-01T05:26:00;10.80;80.70
56771;DHT22;42641;59.794;17.616;2023-06-01T05:28:33;10.90;80.80
56771;DHT22;42641;59.794;17.616;2023-06-01T05:31:03;11.00;80.40
56771;DHT22;42641;59.794;17.616;2023-06-01T05:33:30;10.90;78.10
56771;DHT22;42641;59.794;17.616;2023-06-01T05:35:58;10.90;78.60
56771;DHT22;42641;59.794;17.616;2023-06-01T05:38:26;10.90;78.10
56771;DHT22;42641;59.794;17.616;2023-06-01T05:40:52;10.90;77.60
56771;DHT22;42641;59.794;17.616;2023-06-01T05:43:19;10.90;76.40
56771;DHT22;42641;59.794;17.616;2023-06-01T05:45:45;10.80;77.10
56771;DHT22;42641;59.794;17.616;2023-06-01T05:48:12;10.90;76.40
56771;DHT22;42641;59.794;17.616;2023-06-01T05:50:42;10.80;76.20
56771;DHT22;42641;59.794;17.616;2023-06-01T05:53:09;10.90;77.20
56771;DHT22;42641;59.794;17.616;2023-06-01T05:55:36;11.00;76.50
56771;DHT22;42641;59.794;17.616;2023-06-01T05:58:02;10.90;76.20
56771;DHT22;42641;59.794;17.616;2023-06-01T06:00:29;10.90;76.10
56771;DHT22;42641;59.794;17.616;2023-06-01T06:02:56;10.90;76.10
56771;DHT22;42641;59.794;17.616;2023-06-01T06:05:23;10.90;76.30
56771;DHT22;42641;59.794;17.616;2023-06-01T06:07:49;10.90;75.60
56771;DHT22;42641;59.794;17.616;2023-06-01T06:10:16;11.00;76.20
56771;DHT22;42641;59.794;17.616;2023-06-01T06:12:42;11.10;74.70
56771;DHT22;42641;59.794;17.616;2023-06-01T06:15:09;11.00;72.40
56771;DHT22;42641;59.794;17.616;2023-06-01T06:17:36;11.00;72.70
56771;DHT22;42641;59.794;17.616;2023-06-01T06:20:02;11.10;72.10
56771;DHT22;42641;59.794;17.616;2023-06-01T06:22:32;11.10;71.40
56771;DHT22;42641;59.794;17.616;2023-06-01T06:24:59;11.20;72.00
56771;DHT22;42641;59.794;17.616;2023-06-01T06:27:25;11.20;71.70
56771;DHT22;42641;59.794;17.616;2023-06-01T06:29:52;11.20;70.40
56771;DHT22;42641;59.794;17.616;2023-06-01T06:32:19;11.30;70.30
56771;DHT22;42641;59.794;17.616;2023-06-01T06:34:48;11.40;69.40
56771;DHT22;42641;59.794;17.616;2023-06-01T06:37:14;11.50;68.10
56771;DHT22;42641;59.794;17.616;2023-06-01T06:39:41;11.50;67.90
56771;DHT22;42641;59.794;17.616;2023-06-01T06:42:07;11.60;67.90
56771;DHT22;42641;59.794;17.616;2023-06-01T06:44:34;11.60;68.10
56771;DHT22;42641;59.794;17.616;2023-06-01T06:47:00;11.70;68.70
56771;DHT22;42641;59.794;17.616;2023-06-01T06:49:27;11.60;66.60
56771;DHT22;42641;59.794;17.616;2023-06-01T06:51:53;11.50;65.90
56771;DHT22;42641;59.794;17.616;2023-06-01T06:54:20;11.50;65.30
56771;DHT22;42641;59.794;17.616;2023-06-01T06:56:47;11.60;65.90
56771;DHT22;42641;59.794;17.616;2023-06-01T06:59:13;11.70;67.10
56771;DHT22;42641;59.794;17.616;2023-06-01T07:01:40;11.90;65.00
56771;DHT22;42641;59.794;17.616;2023-06-01T07:04:07;11.90;64.70
56771;DHT22;42641;59.794;17.616;2023-06-01T07:06:34;12.10;65.00
56771;DHT22;42641;59.794;17.616;2023-06-01T07:09:01;12.20;65.40
56771;DHT22;42641;59.794;17.616;2023-06-01T07:11:27;12.30;65.70
56771;DHT22;42641;59.794;17.616;2023-06-01T07:13:54;12.50;65.20
56771;DHT22;42641;59.794;17.616;2023-06-01T07:16:26;12.30;62.90
56771;DHT22;42641;59.794;17.616;2023-06-01T07:18:54;12.30;63.90
56771;DHT22;42641;59.794;17.616;2023-06-01T07:21:22;12.30;62.80
56771;DHT22;42641;59.794;17.616;2023-06-01T07:23:48;12.40;64.00
56771;DHT22;42641;59.794;17.616;2023-06-01T07:26:15;12.60;63.10
56771;DHT22;42641;59.794;17.616;2023-06-01T07:28:41;12.80;63.40
56771;DHT22;42641;59.794;17.616;2023-06-01T07:31:08;12.80;62.30
56771;DHT22;42641;59.794;17.616;2023-06-01T07:33:35;12.90;62.50
56771;DHT22;42641;59.794;17.616;2023-06-01T07:36:05;13.00;62.10
56771;DHT22;42641;59.794;17.616;2023-06-01T07:38:32;13.00;62.80
56771;DHT22;42641;59.794;17.616;2023-06-01T07:40:59;13.20;62.70
56771;DHT22;42641;59.794;17.616;2023-06-01T07:43:26;13.20;62.60
56771;DHT22;42641;59.794;17.616;2023-06-01T07:45:53;13.50;62.20
56771;DHT22;42641;59.794;17.616;2023-06-01T07:48:19;13.70;60.20
56771;DHT22;42641;59.794;17.616;2023-06-01T07:50:46;13.90;61.60
56771;DHT22;42641;59.794;17.616;2023-06-01T07:53:12;14.10;61.70
56771;DHT22;42641;59.794;17.616;2023-06-01T07:55:39;14.10;61.30
56771;DHT22;42641;59.794;17.616;2023-06-01T07:58:06;14.10;61.90
56771;DHT22;42641;59.794;17.616;2023-06-01T08:00:32;13.90;60.30
56771;DHT22;42641;59.794;17.616;2023-06-01T08:02:58;13.80;61.40
56771;DHT22;42641;59.794;17.616;2023-06-01T08:05:25;13.70;61.20
56771;DHT22;42641;59.794;17.616;2023-06-01T08:07:51;13.80;62.30
56771;DHT22;42641;59.794;17.616;2023-06-01T08:10:18;13.70;62.00
56771;DHT22;42641;59.794;17.616;2023-06-01T08:12:45;13.40;61.40
56771;DHT22;42641;59.794;17.616;2023-06-01T08:15:14;13.40;63.00
56771;DHT22;42641;59.794;17.616;2023-06-01T08:17:42;13.60;60.90
56771;DHT22;42641;59.794;17.616;2023-06-01T08:20:09;13.70;62.20
56771;DHT22;42641;59.794;17.616;2023-06-01T08:22:38;14.10;63.50
56771;DHT22;42641;59.794;17.616;2023-06-01T08:25:06;14.50;61.40
56771;DHT22;42641;59.794;17.616;2023-06-01T08:27:33;14.30;61.00
56771;DHT22;42641;59.794;17.616;2023-06-01T08:29:59;13.90;60.90
56771;DHT22;42641;59.794;17.616;2023-06-01T08:32:26;13.90;60.20
56771;DHT22;42641;59.794;17.616;2023-06-01T08:34:52;13.80;60.10
56771;DHT22;42641;59.794;17.616;2023-06-01T08:37:19;13.80;60.30
56771;DHT22;42641;59.794;17.616;2023-06-01T08:39:45;13.80;60.60
56771;DHT22;42641;59.794;17.616;2023-06-01T08:42:23;14.10;61.20
56771;DHT22;42641;59.794;17.616;2023-06-01T08:44:54;14.30;60.60
56771;DHT22;42641;59.794;17.616;2023-06-01T08:47:24;14.10;59.30
56771;DHT22;42641;59.794;17.616;2023-06-01T08:49:51;14.10;60.50
56771;DHT22;42641;59.794;17.616;2023-06-01T08:52:24;14.00;60.50
56771;DHT22;42641;59.794;17.616;2023-06-01T08:54:54;14.10;61.50
56771;DHT22;42641;59.794;17.616;2023-06-01T08:57:20;14.30;60.40
56771;DHT22;42641;59.794;17.616;2023-06-01T08:59:47;14.50;59.80
56771;DHT22;42641;59.794;17.616;2023-06-01T09:02:14;14.70;60.70
56771;DHT22;42641;59.794;17.616;2023-06-01T09:04:41;15.10;59.30
56771;DHT22;42641;59.794;17.616;2023-06-01T09:07:11;15.30;58.90
56771;DHT22;42641;59.794;17.616;2023-06-01T09:09:39;15.30;58.90
56771;DHT22;42641;59.794;17.616;2023-06-01T09:14:50;15.00;60.00
56771;DHT22;42641;59.794;17.616;2023-06-01T09:17:22;14.70;59.60
56771;DHT22;42641;59.794;17.616;2023-06-01T09:19:52;14.40;60.50
56771;DHT22;42641;59.794;17.616;2023-06-01T09:22:19;14.10;59.80
56771;DHT22;42641;59.794;17.616;2023-06-01T09:24:59;14.30;62.20
56771;DHT22;42641;59.794;17.616;2023-06-01T09:27:26;14.30;59.60
56771;DHT22;42641;59.794;17.616;2023-06-01T09:29:57;14.40;61.00
56771;DHT22;42641;59.794;17.616;2023-06-01T09:32:25;14.40;60.00
56771;DHT22;42641;59.794;17.616;2023-06-01T09:34:52;14.30;59.30
56771;DHT22;42641;59.794;17.616;2023-06-01T09:37:20;14.40;61.20
56771;DHT22;42641;59.794;17.616;2023-06-01T09:39:46;15.00;59.20
56771;DHT22;42641;59.794;17.616;2023-06-01T09:42:13;15.60;59.20
56771;DHT22;42641;59.794;17.616;2023-06-01T09:44:40;16.10;58.00
56771;DHT22;42641;59.794;17.616;2023-06-01T09:47:09;16.10;57.70
56771;DHT22;42641;59.794;17.616;2023-06-01T09:54:49;16.10;56.30
56771;DHT22;42641;59.794;17.616;2023-06-01T09:57:26;16.20;56.60
56771;DHT22;42641;59.794;17.616;2023-06-01T09:59:55;16.30;55.30
56771;DHT22;42641;59.794;17.616;2023-06-01T10:02:23;15.90;55.70
56771;DHT22;42641;59.794;17.616;2023-06-01T10:04:50;15.30;57.00
56771;DHT22;42641;59.794;17.616;2023-06-01T10:07:19;15.20;56.60
56771;DHT22;42641;59.794;17.616;2023-06-01T10:09:52;15.40;57.50
56771;DHT22;42641;59.794;17.616;2023-06-01T10:12:19;15.50;56.60
56771;DHT22;42641;59.794;17.616;2023-06-01T10:14:48;15.90;56.60
56771;DHT22;42641;59.794;17.616;2023-06-01T10:17:15;16.30;56.80
56771;DHT22;42641;59.794;17.616;2023-06-01T10:19:42;16.80;54.40
56771;DHT22;42641;59.794;17.616;2023-06-01T10:22:09;16.70;53.40
56771;DHT22;42641;59.794;17.616;2023-06-01T10:24:39;16.70;55.70
56771;DHT22;42641;59.794;17.616;2023-06-01T10:27:19;17.20;54.90
56771;DHT22;42641;59.794;17.616;2023-06-01T10:29:47;17.30;54.40
56771;DHT22;42641;59.794;17.616;2023-06-01T10:35:03;16.40;53.50
56771;DHT22;42641;59.794;17.616;2023-06-01T10:37:30;16.00;54.30
56771;DHT22;42641;59.794;17.616;2023-06-01T10:40:19;15.90;54.50
56771;DHT22;42641;59.794;17.616;2023-06-01T10:42:50;16.20;55.30
56771;DHT22;42641;59.794;17.616;2023-06-01T10:48:02;16.50;53.50
56771;DHT22;42641;59.794;17.616;2023-06-01T10:50:29;16.30;53.40
56771;DHT22;42641;59.794;17.616;2023-06-01T10:52:56;16.40;53.60
56771;DHT22;42641;59.794;17.616;2023-06-01T10:55:26;16.60;54.60
56771;DHT22;42641;59.794;17.616;2023-06-01T10:58:21;16.40;55.70
56771;DHT22;42641;59.794;17.616;2023-06-01T11:00:50;16.50;55.00
56771;DHT22;42641;59.794;17.616;2023-06-01T11:03:46;16.80;53.20
56771;DHT22;42641;59.794;17.616;2023-06-01T11:06:24;17.00;51.60
56771;DHT22;42641;59.794;17.616;2023-06-01T11:08:53;16.40;52.30
56771;DHT22;42641;59.794;17.616;2023-06-01T11:11:20;16.30;52.90
56771;DHT22;42641;59.794;17.616;2023-06-01T11:14:12;17.10;53.10
56771;DHT22;42641;59.794;17.616;2023-06-01T11:16:39;17.50;51.20
56771;DHT22;42641;59.794;17.616;2023-06-01T11:19:06;17.30;52.50
56771;DHT22;42641;59.794;17.616;2023-06-01T11:21:41;16.90;53.30
56771;DHT22;42641;59.794;17.616;2023-06-01T11:24:13;16.30;52.70
56771;DHT22;42641;59.794;17.616;2023-06-01T11:26:49;16.70;53.70
56771;DHT22;42641;59.794;17.616;2023-06-01T11:29:21;17.30;52.70
56771;DHT22;42641;59.794;17.616;2023-06-01T11:31:50;18.00;51.40
56771;DHT22;42641;59.794;17.616;2023-06-01T11:34:19;19.10;50.70
56771;DHT22;42641;59.794;17.616;2023-06-01T11:36:53;18.80;49.30
56771;DHT22;42641;59.794;17.616;2023-06-01T11:39:26;17.70;50.50
56771;DHT22;42641;59.794;17.616;2023-06-01T11:42:11;17.60;52.20
56771;DHT22;42641;59.794;17.616;2023-06-01T11:44:44;18.80;50.70
56771;DHT22;42641;59.794;17.616;2023-06-01T11:47:12;19.90;48.40
56771;DHT22;42641;59.794;17.616;2023-06-01T11:49:43;21.10;48.20
56771;DHT22;42641;59.794;17.616;2023-06-01T11:52:10;21.50;45.60
56771;DHT22;42641;59.794;17.616;2023-06-01T11:54:37;22.00;46.00
56771;DHT22;42641;59.794;17.616;2023-06-01T11:57:04;22.70;44.20
56771;DHT22;42641;59.794;17.616;2023-06-01T12:02:25;22.30;45.10
56771;DHT22;42641;59.794;17.616;2023-06-01T12:07:57;22.40;43.40
56771;DHT22;42641;59.794;17.616;2023-06-01T12:10:24;22.80;43.70
56771;DHT22;42641;59.794;17.616;2023-06-01T12:12:51;23.20;42.80
56771;DHT22;42641;59.794;17.616;2023-06-01T12:15:19;23.50;43.30
56771;DHT22;42641;59.794;17.616;2023-06-01T12:17:50;22.40;41.90
56771;DHT22;42641;59.794;17.616;2023-06-01T12:20:28;21.20;43.80
56771;DHT22;42641;59.794;17.616;2023-06-01T12:22:55;20.20;45.80
56771;DHT22;42641;59.794;17.616;2023-06-01T12:25:22;19.50;46.20
56771;DHT22;42641;59.794;17.616;2023-06-01T12:28:04;19.60;46.90
56771;DHT22;42641;59.794;17.616;2023-06-01T12:30:31;20.60;46.70
56771;DHT22;42641;59.794;17.616;2023-06-01T12:32:58;21.30;42.80
56771;DHT22;42641;59.794;17.616;2023-06-01T12:35:25;21.90;42.80
56771;DHT22;42641;59.794;17.616;2023-06-01T12:38:09;22.60;41.70
56771;DHT22;42641;59.794;17.616;2023-06-01T12:40:38;23.20;41.60
56771;DHT22;42641;59.794;17.616;2023-06-01T12:43:17;23.30;41.20
56771;DHT22;42641;59.794;17.616;2023-06-01T12:45:45;23.30;39.90
56771;DHT22;42641;59.794;17.616;2023-06-01T12:48:36;23.30;40.00
56771;DHT22;42641;59.794;17.616;2023-06-01T12:51:04;23.70;40.10
56771;DHT22;42641;59.794;17.616;2023-06-01T12:53:31;24.10;39.20
56771;DHT22;42641;59.794;17.616;2023-06-01T12:55:57;24.40;39.80
56771;DHT22;42641;59.794;17.616;2023-06-01T12:58:24;24.60;39.90
56771;DHT22;42641;59.794;17.616;2023-06-01T13:00:50;24.50;39.10
56771;DHT22;42641;59.794;17.616;2023-06-01T13:03:17;23.80;39.60
56771;DHT22;42641;59.794;17.616;2023-06-01T13:05:44;23.70;40.00
56771;DHT22;42641;59.794;17.616;2023-06-01T13:08:13;24.20;40.00
56771;DHT22;42641;59.794;17.616;2023-06-01T13:10:40;25.00;40.00
56771;DHT22;42641;59.794;17.616;2023-06-01T13:13:07;25.10;39.90
56771;DHT22;42641;59.794;17.616;2023-06-01T13:15:34;25.50;38.90
56771;DHT22;42641;59.794;17.616;2023-06-01T13:18:03;25.90;36.60
56771;DHT22;42641;59.794;17.616;2023-06-01T13:20:29;25.70;36.80
56771;DHT22;42641;59.794;17.616;2023-06-01T13:22:56;24.40;38.10
56771;DHT22;42641;59.794;17.616;2023-06-01T13:25:22;23.00;38.90
56771;DHT22;42641;59.794;17.616;2023-06-01T13:27:49;23.30;40.30
56771;DHT22;42641;59.794;17.616;2023-06-01T13:30:16;24.30;40.40
56771;DHT22;42641;59.794;17.616;2023-06-01T13:32:44;24.70;38.70
56771;DHT22;42641;59.794;17.616;2023-06-01T13:35:10;25.00;40.70
56771;DHT22;42641;59.794;17.616;2023-06-01T13:37:40;25.70;38.90
56771;DHT22;42641;59.794;17.616;2023-06-01T13:40:07;25.80;39.90
56771;DHT22;42641;59.794;17.616;2023-06-01T13:42:33;26.20;38.10
56771;DHT22;42641;59.794;17.616;2023-06-01T13:45:00;26.50;37.30
56771;DHT22;42641;59.794;17.616;2023-06-01T13:47:26;26.90;37.80
56771;DHT22;42641;59.794;17.616;2023-06-01T13:49:53;27.10;36.90
56771;DHT22;42641;59.794;17.616;2023-06-01T13:52:19;27.20;37.90
56771;DHT22;42641;59.794;17.616;2023-06-01T13:54:46;27.80;38.00
56771;DHT22;42641;59.794;17.616;2023-06-01T13:57:12;28.10;37.00
56771;DHT22;42641;59.794;17.616;2023-06-01T13:59:39;26.80;35.30
56771;DHT22;42641;59.794;17.616;2023-06-01T14:02:06;26.10;37.30
56771;DHT22;42641;59.794;17.616;2023-06-01T14:04:34;25.10;37.40
56771;DHT22;42641;59.794;17.616;2023-06-01T14:07:01;23.70;39.80
56771;DHT22;42641;59.794;17.616;2023-06-01T14:09:28;22.80;40.90
56771;DHT22;42641;59.794;17.616;2023-06-01T14:11:54;23.00;40.60
56771;DHT22;42641;59.794;17.616;2023-06-01T14:14:21;24.30;39.60
56771;DHT22;42641;59.794;17.616;2023-06-01T14:16:47;25.50;38.30
56771;DHT22;42641;59.794;17.616;2023-06-01T14:19:14;26.20;38.10
56771;DHT22;42641;59.794;17.616;2023-06-01T14:21:41;27.10;35.70
56771;DHT22;42641;59.794;17.616;2023-06-01T14:24:07;27.10;35.60
56771;DHT22;42641;59.794;17.616;2023-06-01T14:26:34;26.40;35.70
56771;DHT22;42641;59.794;17.616;2023-06-01T14:29:01;25.10;36.60
56771;DHT22;42641;59.794;17.616;2023-06-01T14:31:27;25.00;37.80
56771;DHT22;42641;59.794;17.616;2023-06-01T14:33:53;25.70;37.20
56771;DHT22;42641;59.794;17.616;2023-06-01T14:36:20;26.00;36.20
56771;DHT22;42641;59.794;17.616;2023-06-01T14:38:46;26.40;35.80
56771;DHT22;42641;59.794;17.616;2023-06-01T14:41:13;27.10;36.00
56771;DHT22;42641;59.794;17.616;2023-06-01T14:43:39;27.90;35.40
56771;DHT22;42641;59.794;17.616;2023-06-01T14:46:06;28.40;33.30
56771;DHT22;42641;59.794;17.616;2023-06-01T14:48:33;28.80;33.80
56771;DHT22;42641;59.794;17.616;2023-06-01T14:50:59;28.90;33.50
56771;DHT22;42641;59.794;17.616;2023-06-01T14:53:26;28.90;34.10
56771;DHT22;42641;59.794;17.616;2023-06-01T14:55:52;29.20;35.00
56771;DHT22;42641;59.794;17.616;2023-06-01T14:58:18;28.80;33.90
56771;DHT22;42641;59.794;17.616;2023-06-01T15:00:45;28.90;32.30
56771;DHT22;42641;59.794;17.616;2023-06-01T15:03:12;29.10;31.70
56771;DHT22;42641;59.794;17.616;2023-06-01T15:05:38;29.20;31.40
56771;DHT22;42641;59.794;17.616;2023-06-01T15:08:05;28.90;32.60
56771;DHT22;42641;59.794;17.616;2023-06-01T15:10:33;27.70;34.70
56771;DHT22;42641;59.794;17.616;2023-06-01T15:12:59;26.90;33.70
56771;DHT22;42641;59.794;17.616;2023-06-01T15:15:26;26.80;34.30
56771;DHT22;42641;59.794;17.616;2023-06-01T15:17:53;27.20;34.90
56771;DHT22;42641;59.794;17.616;2023-06-01T15:20:21;27.90;34.30
56771;DHT22;42641;59.794;17.616;2023-06-01T15:22:47;28.10;34.50
56771;DHT22;42641;59.794;17.616;2023-06-01T15:25:14;28.30;33.70
56771;DHT22;42641;59.794;17.616;2023-06-01T15:27:40;28.20;33.00
56771;DHT22;42641;59.794;17.616;2023-06-01T15:30:07;27.30;32.90
56771;DHT22;42641;59.794;17.616;2023-06-01T15:32:59;27.20;34.70
56771;DHT22;42641;59.794;17.616;2023-06-01T15:35:26;27.60;33.30
56771;DHT22;42641;59.794;17.616;2023-06-01T15:37:52;26.70;33.00
56771;DHT22;42641;59.794;17.616;2023-06-01T15:40:19;26.60;34.70
56771;DHT22;42641;59.794;17.616;2023-06-01T15:42:46;27.00;33.70
56771;DHT22;42641;59.794;17.616;2023-06-01T15:45:12;26.90;32.60
56771;DHT22;42641;59.794;17.616;2023-06-01T15:47:39;26.80;34.20
56771;DHT22;42641;59.794;17.616;2023-06-01T15:50:06;26.50;33.40
56771;DHT22;42641;59.794;17.616;2023-06-01T15:52:32;26.10;33.20
56771;DHT22;42641;59.794;17.616;2023-06-01T15:54:59;26.10;33.30